createdAt,value
2022-09-15T00:02:04.488Z,15.92
2022-09-15T00:12:24.206Z,15.92
2022-09-15T00:22:35.583Z,15.95
2022-09-15T00:32:44.845Z,15.72
2022-09-15T00:42:53.622Z,15.60
2022-09-15T00:53:39.834Z,15.60
2022-09-15T01:03:48.918Z,15.68
2022-09-15T01:13:59.582Z,15.72
2022-09-15T01:25:03.251Z,15.68
2022-09-15T01:35:58.983Z,15.75
2022-09-15T01:46:40.521Z,15.70
2022-09-15T01:57:21.466Z,15.64
2022-09-15T02:08:36.577Z,15.51
2022-09-15T02:19:31.821Z,15.56
2022-09-15T02:29:40.375Z,15.45
2022-09-15T02:39:51.773Z,15.58
2022-09-15T02:49:55.712Z,15.56
2022-09-15T03:00:14.026Z,15.44
2022-09-15T03:10:21.934Z,15.33
2022-09-15T03:20:31.238Z,15.29
2022-09-15T03:30:45.585Z,15.33
2022-09-15T03:41:19.032Z,15.26
2022-09-15T03:51:27.641Z,15.29
2022-09-15T04:01:36.575Z,15.35
2022-09-15T04:12:22.269Z,15.39
2022-09-15T04:22:41.211Z,15.36
2022-09-15T04:33:07.041Z,15.29
2022-09-15T04:43:26.038Z,15.38
2022-09-15T04:53:36.000Z,15.40
2022-09-15T05:03:47.407Z,15.50
2022-09-15T05:13:58.599Z,15.54
2022-09-15T05:24:07.351Z,15.64
2022-09-15T05:34:21.607Z,15.55
2022-09-15T05:45:29.186Z,15.54
2022-09-15T05:55:41.062Z,15.58
2022-09-15T06:05:47.039Z,15.57
2022-09-15T06:15:50.402Z,15.62
2022-09-15T06:25:56.628Z,15.76
2022-09-15T06:36:03.406Z,15.93
2022-09-15T06:46:14.063Z,16.00
2022-09-15T06:56:26.886Z,16.08
2022-09-15T07:06:47.566Z,16.28
2022-09-15T07:17:13.820Z,16.37
2022-09-15T07:27:26.409Z,16.62
2022-09-15T07:37:29.948Z,16.78
2022-09-15T07:47:36.338Z,16.76
2022-09-15T07:57:42.442Z,16.86
2022-09-15T08:08:02.108Z,17.11
2022-09-15T08:18:25.803Z,17.19
2022-09-15T08:28:32.244Z,17.40
2022-09-15T08:38:42.353Z,17.92
2022-09-15T08:48:59.663Z,18.34
2022-09-15T08:59:17.425Z,18.59
2022-09-15T09:09:42.196Z,18.74
2022-09-15T09:20:34.500Z,18.80
2022-09-15T09:30:40.929Z,18.86
2022-09-15T09:40:49.704Z,19.09
2022-09-15T09:51:55.355Z,19.23
2022-09-15T10:02:19.055Z,19.56
2022-09-15T10:12:39.931Z,19.81
2022-09-15T10:22:46.158Z,20.01
2022-09-15T10:33:26.450Z,20.20
2022-09-15T10:44:00.338Z,20.47
2022-09-15T10:54:36.428Z,20.09
2022-09-15T11:04:42.670Z,19.97
2022-09-15T11:15:07.667Z,19.75
2022-09-15T11:25:25.496Z,19.65
2022-09-15T11:35:42.610Z,19.60
2022-09-15T11:45:55.785Z,19.64
2022-09-15T11:56:32.412Z,19.63
2022-09-15T12:06:45.762Z,19.46
2022-09-15T12:16:50.484Z,19.38
2022-09-15T12:26:59.170Z,19.34
2022-09-15T12:37:31.637Z,19.36
2022-09-15T12:48:15.831Z,19.26
2022-09-15T12:59:03.273Z,19.20
2022-09-15T13:09:43.681Z,19.21
2022-09-15T13:19:53.283Z,19.19
2022-09-15T13:30:31.571Z,19.18
2022-09-15T13:41:28.392Z,19.22
2022-09-15T13:51:35.694Z,19.22
2022-09-15T14:01:59.777Z,19.31
2022-09-15T14:12:15.249Z,19.63
2022-09-15T14:22:21.439Z,19.47
2022-09-15T14:32:28.138Z,19.42
2022-09-15T14:42:36.596Z,19.57
2022-09-15T14:52:53.536Z,19.61
2022-09-15T15:03:08.867Z,19.65
2022-09-15T15:13:16.773Z,19.50
2022-09-15T15:23:26.908Z,19.36
2022-09-15T15:33:33.718Z,19.23
2022-09-15T15:43:58.984Z,19.03
2022-09-15T15:54:20.790Z,18.77
2022-09-15T16:04:27.225Z,18.62
2022-09-15T16:14:36.085Z,18.45
2022-09-15T16:24:44.605Z,18.34
2022-09-15T16:34:52.791Z,18.19
2022-09-15T16:44:56.071Z,18.10
2022-09-15T16:55:02.158Z,17.99
2022-09-15T17:05:16.470Z,17.75
2022-09-15T17:15:30.170Z,17.53
2022-09-15T17:25:49.096Z,17.44
2022-09-15T17:35:57.613Z,17.39
2022-09-15T17:46:09.666Z,17.21
2022-09-15T17:56:25.260Z,16.98
2022-09-15T18:06:44.731Z,16.78
2022-09-15T18:16:57.500Z,16.69
2022-09-15T18:27:03.003Z,16.61
2022-09-15T18:37:09.343Z,16.46
2022-09-15T18:47:18.771Z,16.38
2022-09-15T18:57:25.337Z,16.45
2022-09-15T19:07:28.773Z,16.49
2022-09-15T19:17:40.684Z,16.55
2022-09-15T19:27:48.207Z,16.50
2022-09-15T19:37:54.031Z,16.47
2022-09-15T19:48:23.510Z,16.52
2022-09-15T19:58:30.155Z,16.56
2022-09-15T20:08:41.628Z,16.54
2022-09-15T20:18:48.831Z,16.51
2022-09-15T20:29:05.651Z,16.45
2022-09-15T20:39:13.383Z,16.45
2022-09-15T20:49:17.162Z,16.44
2022-09-15T20:59:26.340Z,16.27
2022-09-15T21:09:35.909Z,16.14
2022-09-15T21:19:53.144Z,16.07
2022-09-15T21:30:02.724Z,15.90
2022-09-15T21:40:10.281Z,15.75
2022-09-15T21:50:19.415Z,15.58
2022-09-15T22:01:04.254Z,15.37
2022-09-15T22:11:34.138Z,15.30
2022-09-15T22:21:46.716Z,15.30
2022-09-15T22:32:10.111Z,15.12
2022-09-15T22:42:26.252Z,15.07
2022-09-15T22:52:37.830Z,14.93
2022-09-15T23:02:44.502Z,14.73
2022-09-15T23:12:50.002Z,14.64
2022-09-15T23:23:09.128Z,14.63
2022-09-15T23:33:18.631Z,14.53
2022-09-15T23:43:24.851Z,14.33
2022-09-15T23:53:36.075Z,14.20
